Time;durP1;ratioP1;P1;durP2;ratioP2;P2;SDS_P1;SDS_P2;PMS_P1;PMS_P2;Temp;Humidity;BMP_temperature;BMP_pressure;BME280_temperature;BME280_humidity;BME280_pressure;Samples;Min_cycle;Max_cycle;Signal;HPM_P1;HPM_P2
2022/10/05 00:00:14;;;;;;;8.40;5.40;;;16.20;99.90;;;;;;5086643;28;20060;-76
2022/10/05 00:02:40;;;;;;;8.43;6.25;;;15.60;99.90;;;;;;5056233;28;20099;-76
2022/10/05 00:05:23;;;;;;;8.75;5.55;;;15.60;99.90;;;;;;5042592;28;20053;-76
2022/10/05 00:07:51;;;;;;;6.82;5.22;;;15.60;99.90;;;;;;5051941;28;20049;-76
2022/10/05 00:10:18;;;;;;;8.63;5.28;;;15.60;99.90;;;;;;5056976;28;20048;-76
2022/10/05 00:12:46;;;;;;;7.47;5.53;;;15.60;99.90;;;;;;5088620;28;20860;-76
2022/10/05 00:15:15;;;;;;;7.25;5.55;;;15.60;99.90;;;;;;5056560;28;20063;-76
2022/10/05 00:17:41;;;;;;;8.30;5.22;;;15.60;99.90;;;;;;5054210;28;20048;-76
2022/10/05 00:20:22;;;;;;;5.70;5.15;;;15.60;99.90;;;;;;5056697;28;20044;-77
2022/10/05 00:22:55;;;;;;;8.70;4.93;;;15.60;99.90;;;;;;5054924;28;20142;-76
2022/10/05 00:25:21;;;;;;;8.32;4.55;;;15.60;99.90;;;;;;5053670;28;20057;-76
2022/10/05 00:27:57;;;;;;;9.48;5.35;;;15.60;99.90;;;;;;5051114;28;20079;-76
2022/10/05 00:30:29;;;;;;;8.07;5.07;;;15.60;99.90;;;;;;5045777;28;20082;-76
2022/10/05 00:32:55;;;;;;;5.78;4.38;;;15.60;99.90;;;;;;5049963;28;20099;-76
2022/10/05 00:35:21;;;;;;;4.97;4.47;;;15.60;99.90;;;;;;5038686;28;20148;-76
2022/10/05 00:37:52;;;;;;;7.97;5.22;;;15.50;99.90;;;;;;5054272;28;20044;-76
2022/10/05 00:40:51;;;;;;;5.53;5.03;;;15.50;99.90;;;;;;5055790;28;20115;-76
2022/10/05 00:43:37;;;;;;;5.90;4.75;;;15.50;99.90;;;;;;5049536;28;20053;-76
2022/10/05 00:46:14;;;;;;;8.65;4.85;;;15.60;99.90;;;;;;5041967;28;20945;-76
2022/10/05 00:49:17;;;;;;;10.02;4.65;;;15.50;99.90;;;;;;5056018;28;20072;-76
2022/10/05 00:51:52;;;;;;;8.20;4.80;;;15.60;99.90;;;;;;5053552;28;20880;-76
2022/10/05 00:54:42;;;;;;;9.95;4.75;;;15.60;99.90;;;;;;5051045;28;20080;-76
2022/10/05 00:57:11;;;;;;;6.78;4.50;;;15.50;99.90;;;;;;5044127;28;20084;-76
2022/10/05 00:59:57;;;;;;;12.18;4.93;;;15.50;99.90;;;;;;5053440;28;20037;-76
2022/10/05 01:02:57;;;;;;;5.70;4.10;;;15.60;99.90;;;;;;5044637;28;20048;-77
2022/10/05 01:05:29;;;;;;;5.80;5.00;;;15.50;99.90;;;;;;5041431;28;20079;-76
2022/10/05 01:08:49;;;;;;;6.32;4.10;;;15.50;99.90;;;;;;5041231;28;20467;-76
2022/10/05 01:11:17;;;;;;;5.45;4.65;;;15.50;99.90;;;;;;5036709;28;20132;-76
2022/10/05 01:13:48;;;;;;;6.65;5.00;;;15.40;99.90;;;;;;5049786;28;20063;-75
2022/10/05 01:16:20;;;;;;;5.05;4.55;;;15.50;99.90;;;;;;5059740;28;20044;-75
2022/10/05 01:19:18;;;;;;;5.70;4.18;;;15.50;99.90;;;;;;5059862;28;20101;-75
2022/10/05 01:21:59;;;;;;;5.28;4.00;;;15.40;99.90;;;;;;5027549;28;20080;-76
2022/10/05 01:24:48;;;;;;;8.02;4.28;;;15.40;99.90;;;;;;5061160;28;20055;-76
2022/10/05 01:27:40;;;;;;;6.45;4.00;;;15.30;99.90;;;;;;5054346;28;20056;-76
2022/10/05 01:30:16;;;;;;;5.05;3.88;;;15.30;99.90;;;;;;5055751;28;20119;-76
2022/10/05 01:33:15;;;;;;;5.25;3.83;;;15.30;99.90;;;;;;5058986;28;20045;-76
2022/10/05 01:36:21;;;;;;;4.20;3.65;;;15.20;99.90;;;;;;5055122;28;20052;-76
2022/10/05 01:39:06;;;;;;;5.18;3.85;;;14.90;99.90;;;;;;5049033;28;20387;-76
2022/10/05 01:41:38;;;;;;;5.18;3.72;;;15.30;99.90;;;;;;5060643;28;20136;-76
2022/10/05 01:44:17;;;;;;;6.63;4.32;;;15.20;99.90;;;;;;5060515;28;20048;-76
2022/10/05 01:47:02;;;;;;;6.25;4.35;;;15.20;99.90;;;;;;5055875;28;20041;-76
2022/10/05 01:49:48;;;;;;;5.43;3.53;;;15.20;99.90;;;;;;5052095;28;20056;-76
2022/10/05 01:52:29;;;;;;;6.38;5.30;;;15.20;99.90;;;;;;5045282;28;20624;-76
2022/10/05 01:55:11;;;;;;;5.88;4.32;;;15.20;99.90;;;;;;5058516;28;20056;-76
2022/10/05 01:58:05;;;;;;;5.40;4.40;;;15.20;99.90;;;;;;5049984;28;20111;-76
2022/10/05 02:00:55;;;;;;;5.78;4.35;;;15.20;99.90;;;;;;5040156;28;20240;-76
2022/10/05 02:03:27;;;;;;;5.90;4.72;;;15.30;99.90;;;;;;5044257;28;20147;-75
2022/10/05 02:06:00;;;;;;;4.10;3.70;;;15.20;99.90;;;;;;5049325;28;20045;-75
2022/10/05 02:08:45;;;;;;;7.40;4.05;;;15.30;99.90;;;;;;5058258;28;20052;-76
2022/10/05 02:11:13;;;;;;;6.20;5.03;;;15.30;99.90;;;;;;5060406;28;20044;-76
2022/10/05 02:13:49;;;;;;;8.18;4.63;;;15.20;99.90;;;;;;5059078;28;20101;-76
2022/10/05 02:16:24;;;;;;;8.27;4.63;;;15.30;99.90;;;;;;5058122;28;20054;-76
2022/10/05 02:19:08;;;;;;;5.63;4.28;;;15.30;99.90;;;;;;5059221;28;20063;-76
2022/10/05 02:21:35;;;;;;;7.53;4.50;;;15.30;99.90;;;;;;5048673;28;20048;-75
2022/10/05 02:24:07;;;;;;;6.35;3.78;;;15.20;99.90;;;;;;5059623;28;20851;-76
2022/10/05 02:26:35;;;;;;;7.47;4.90;;;15.30;99.90;;;;;;5058484;28;20683;-76
2022/10/05 02:29:08;;;;;;;10.60;5.20;;;15.30;99.90;;;;;;5047579;28;20299;-76
2022/10/05 02:31:41;;;;;;;7.07;5.30;;;15.30;99.90;;;;;;5081012;28;20044;-76
2022/10/05 02:34:26;;;;;;;;;;;15.30;99.90;;;;;;5051427;28;20053;-76
2022/10/05 02:37:12;;;;;;;11.65;5.65;;;15.30;99.90;;;;;;5054483;28;19932;-76
2022/10/05 02:40:07;;;;;;;8.68;4.72;;;15.20;99.90;;;;;;5057667;28;20098;-76
2022/10/05 02:42:55;;;;;;;7.63;5.10;;;15.20;99.90;;;;;;5059665;28;20119;-76
2022/10/05 02:45:45;;;;;;;6.50;4.95;;;15.20;99.90;;;;;;5042160;28;20084;-76
2022/10/05 02:48:32;;;;;;;6.47;4.70;;;15.20;99.90;;;;;;5042905;28;20068;-76
2022/10/05 02:51:15;;;;;;;9.07;5.78;;;15.20;99.90;;;;;;5050304;28;20040;-76
2022/10/05 02:54:02;;;;;;;7.95;4.75;;;15.20;99.90;;;;;;5055686;28;20508;-76
2022/10/05 02:56:46;;;;;;;7.53;4.90;;;15.20;99.90;;;;;;5044597;28;20048;-76
2022/10/05 02:59:15;;;;;;;9.98;4.90;;;15.20;99.90;;;;;;5048582;28;20056;-76
2022/10/05 03:01:55;;;;;;;6.35;5.38;;;15.20;99.90;;;;;;5045490;28;20155;-76
2022/10/05 03:04:34;;;;;;;7.38;4.82;;;15.20;99.90;;;;;;5049087;28;20556;-75
2022/10/05 03:07:26;;;;;;;7.35;5.00;;;15.30;99.90;;;;;;5056815;28;20052;-76
2022/10/05 03:10:11;;;;;;;10.52;5.65;;;15.20;99.90;;;;;;5053733;28;20052;-76
2022/10/05 03:12:50;;;;;;;7.38;4.45;;;15.30;99.90;;;;;;5046694;28;20102;-76
2022/10/05 03:15:41;;;;;;;7.50;5.15;;;15.20;99.90;;;;;;5047955;28;20033;-76
2022/10/05 03:18:21;;;;;;;8.63;5.53;;;15.30;99.90;;;;;;5044404;28;20140;-75
2022/10/05 03:21:17;;;;;;;8.63;5.38;;;15.20;99.90;;;;;;5055769;28;20147;-76
2022/10/05 03:24:21;;;;;;;7.30;5.20;;;15.20;99.90;;;;;;5056715;28;20049;-76
2022/10/05 03:27:07;;;;;;;8.45;4.90;;;15.30;99.90;;;;;;5023061;28;20226;-76
2022/10/05 03:30:03;;;;;;;7.28;5.63;;;15.20;99.90;;;;;;5051556;28;20057;-76
2022/10/05 03:32:34;;;;;;;5.45;4.55;;;15.20;99.90;;;;;;5048746;28;20040;-76
2022/10/05 03:35:12;;;;;;;6.78;5.30;;;15.30;99.90;;;;;;5056719;28;20138;-76
2022/10/05 03:37:54;;;;;;;8.77;5.47;;;15.30;99.90;;;;;;5057768;28;20044;-76
2022/10/05 03:40:48;;;;;;;7.20;4.68;;;15.20;99.90;;;;;;5045225;28;20081;-76
2022/10/05 03:43:17;;;;;;;7.93;5.28;;;15.30;99.90;;;;;;5055828;28;20048;-76
2022/10/05 03:46:01;;;;;;;7.03;4.93;;;15.30;99.90;;;;;;5040182;28;20506;-75
2022/10/05 03:48:50;;;;;;;9.98;5.18;;;15.20;99.90;;;;;;5056185;28;20057;-76
2022/10/05 03:51:28;;;;;;;7.78;5.10;;;15.20;99.90;;;;;;5056703;28;20057;-76
2022/10/05 03:54:10;;;;;;;6.32;4.47;;;15.20;99.90;;;;;;5059065;28;20109;-76
2022/10/05 03:56:46;;;;;;;6.38;4.60;;;15.30;99.90;;;;;;5058149;28;20044;-76
2022/10/05 03:59:28;;;;;;;8.45;5.47;;;15.30;99.90;;;;;;5058268;28;20060;-76
2022/10/05 04:01:57;;;;;;;8.75;4.65;;;15.20;99.90;;;;;;5080728;28;20101;-76
2022/10/05 04:05:04;;;;;;;10.73;5.53;;;15.20;99.90;;;;;;5056803;28;20055;-76
2022/10/05 04:07:46;;;;;;;8.55;4.93;;;15.20;99.90;;;;;;5057860;28;20044;-76
2022/10/05 04:10:22;;;;;;;6.38;4.38;;;15.20;99.90;;;;;;5046971;28;20052;-75
2022/10/05 04:12:53;;;;;;;10.65;5.28;;;15.20;99.90;;;;;;5056766;28;20049;-76
2022/10/05 04:15:27;;;;;;;5.82;4.35;;;15.20;99.90;;;;;;5059378;28;20106;-76
2022/10/05 04:18:02;;;;;;;6.72;5.60;;;15.20;99.90;;;;;;5052910;28;20045;-76
2022/10/05 04:20:32;;;;;;;6.72;5.03;;;15.60;99.90;;;;;;5051209;28;20498;-76
2022/10/05 04:23:09;;;;;;;7.35;4.78;;;15.20;99.90;;;;;;5059307;28;20054;-76
2022/10/05 04:25:59;;;;;;;9.10;5.50;;;15.20;99.90;;;;;;5059042;28;20579;-75
2022/10/05 04:28:40;;;;;;;6.88;4.88;;;15.20;99.90;;;;;;5059204;28;20409;-76
2022/10/05 04:31:12;;;;;;;5.43;4.88;;;15.20;99.90;;;;;;5053077;28;20130;-76
2022/10/05 04:33:37;;;;;;;7.05;5.15;;;15.20;99.90;;;;;;5055420;28;20071;-76
2022/10/05 04:36:21;;;;;;;7.45;5.05;;;15.10;99.90;;;;;;5060005;28;20071;-76
2022/10/05 04:38:49;;;;;;;7.45;5.03;;;15.10;99.90;;;;;;5060017;28;20129;-74
2022/10/05 04:42:00;;;;;;;6.85;5.03;;;15.20;99.90;;;;;;5051666;28;20045;-75
2022/10/05 04:44:42;;;;;;;7.38;4.75;;;15.20;99.90;;;;;;5051881;28;20067;-74
2022/10/05 04:47:23;;;;;;;7.60;4.80;;;15.10;99.90;;;;;;5049851;28;20179;-75
2022/10/05 04:49:52;;;;;;;9.43;6.25;;;15.20;99.90;;;;;;5048800;28;20048;-74
2022/10/05 04:52:47;;;;;;;8.38;5.82;;;15.10;99.90;;;;;;5061157;28;20048;-76
2022/10/05 04:55:38;;;;;;;5.32;4.72;;;15.20;99.90;;;;;;5061516;28;20141;-75
2022/10/05 04:58:23;;;;;;;7.25;6.32;;;15.10;99.90;;;;;;5061185;28;20048;-75
2022/10/05 05:01:12;;;;;;;8.00;5.68;;;15.10;99.90;;;;;;5061988;28;20123;-75
2022/10/05 05:03:43;;;;;;;7.90;5.25;;;15.10;99.90;;;;;;5037013;28;20057;-74
2022/10/05 05:06:20;;;;;;;9.02;5.78;;;15.10;99.90;;;;;;5056626;28;20374;-74
2022/10/05 05:08:56;;;;;;;7.03;5.30;;;15.10;99.90;;;;;;5062177;28;20052;-76
2022/10/05 05:11:33;;;;;;;9.75;5.43;;;15.10;99.90;;;;;;5060733;28;20094;-75
2022/10/05 05:13:59;;;;;;;6.68;4.97;;;15.10;99.90;;;;;;5059331;28;20114;-74
2022/10/05 05:16:34;;;;;;;8.93;5.57;;;15.10;99.90;;;;;;5059341;28;20048;-74
2022/10/05 05:19:31;;;;;;;7.32;6.55;;;15.10;99.90;;;;;;5046414;28;20075;-74
2022/10/05 05:21:59;;;;;;;8.77;5.45;;;15.10;99.90;;;;;;5051322;28;20151;-74
2022/10/05 05:24:40;;;;;;;9.38;5.97;;;15.10;99.90;;;;;;5046889;28;20828;-76
2022/10/05 05:27:43;;;;;;;8.07;6.00;;;15.10;99.90;;;;;;5047407;28;20052;-75
2022/10/05 05:30:27;;;;;;;6.18;5.25;;;15.10;99.90;;;;;;5040964;28;20049;-75
2022/10/05 05:33:11;;;;;;;;;;;15.10;99.90;;;;;;5056397;28;20110;-75
2022/10/05 05:36:02;;;;;;;7.30;5.50;;;15.00;99.90;;;;;;5045458;28;19931;-75
2022/10/05 05:38:43;;;;;;;8.95;5.13;;;15.00;99.90;;;;;;5051456;28;20044;-75
2022/10/05 05:41:17;;;;;;;6.63;4.63;;;15.70;99.90;;;;;;5048702;28;20053;-75
2022/10/05 05:43:45;;;;;;;7.38;5.13;;;15.00;99.90;;;;;;5056028;28;20055;-75
2022/10/05 05:46:27;;;;;;;6.53;5.45;;;15.10;99.90;;;;;;5048447;28;20052;-76
2022/10/05 05:48:55;;;;;;;4.90;4.40;;;15.10;99.90;;;;;;5056982;28;20086;-76
2022/10/05 05:51:27;;;;;;;9.95;7.00;;;15.10;99.90;;;;;;5054702;28;20462;-76
2022/10/05 05:54:04;;;;;;;6.70;5.78;;;15.10;99.90;;;;;;5051814;28;20374;-77
2022/10/05 05:56:34;;;;;;;8.32;4.45;;;15.10;99.90;;;;;;5052902;28;20080;-77
2022/10/05 05:59:41;;;;;;;6.88;4.95;;;15.10;99.90;;;;;;5055937;28;20067;-75
2022/10/05 06:02:19;;;;;;;6.53;5.15;;;15.10;99.90;;;;;;5042626;28;20172;-77
2022/10/05 06:04:57;;;;;;;7.97;5.68;;;15.10;99.90;;;;;;5056400;28;20048;-77
2022/10/05 06:07:28;;;;;;;6.22;4.88;;;15.10;99.90;;;;;;5057236;28;20052;-77
2022/10/05 06:10:04;;;;;;;7.22;5.00;;;15.10;99.90;;;;;;5061858;28;20508;-76
2022/10/05 06:12:39;;;;;;;7.95;4.97;;;15.10;99.90;;;;;;5048229;28;20115;-76
2022/10/05 06:15:43;;;;;;;6.00;4.95;;;15.10;99.90;;;;;;5048084;28;20052;-77
2022/10/05 06:18:18;;;;;;;7.35;4.80;;;15.10;99.90;;;;;;5047645;28;20045;-76
2022/10/05 06:21:10;;;;;;;9.23;5.10;;;15.10;99.90;;;;;;5078491;28;20047;-77
2022/10/05 06:23:49;;;;;;;8.65;5.07;;;15.10;99.90;;;;;;5043409;28;20056;-77
2022/10/05 06:26:15;;;;;;;8.30;4.90;;;15.10;99.90;;;;;;5051750;28;20147;-74
2022/10/05 06:28:41;;;;;;;7.72;5.45;;;15.10;99.90;;;;;;5047967;28;20537;-80
2022/10/05 06:31:28;;;;;;;6.80;4.85;;;15.10;99.90;;;;;;5057119;28;20041;-75
2022/10/05 06:34:17;;;;;;;8.57;5.20;;;15.20;99.90;;;;;;5056605;28;20059;-74
2022/10/05 06:36:49;;;;;;;7.88;4.80;;;15.20;99.90;;;;;;5053826;28;20052;-76
2022/10/05 06:39:54;;;;;;;8.70;5.85;;;15.20;99.90;;;;;;5059306;28;20045;-78
2022/10/05 06:42:48;;;;;;;8.95;5.55;;;15.20;99.90;;;;;;5048136;28;20087;-79
2022/10/05 06:45:18;;;;;;;;;;;15.20;99.90;;;;;;5056023;28;20056;-77
2022/10/05 06:47:55;;;;;;;8.65;6.07;;;15.20;99.90;;;;;;5042376;28;19964;-77
2022/10/05 06:50:36;;;;;;;7.47;5.28;;;15.20;99.90;;;;;;5057455;28;20133;-79
2022/10/05 06:53:06;;;;;;;10.15;5.78;;;15.20;99.90;;;;;;5059515;28;20082;-79
2022/10/05 06:56:15;;;;;;;5.88;4.82;;;15.30;99.90;;;;;;5056837;28;20050;-80
2022/10/05 06:59:16;;;;;;;7.95;5.07;;;15.30;99.90;;;;;;5055215;28;20088;-79
2022/10/05 07:01:58;;;;;;;5.88;5.30;;;15.30;99.90;;;;;;5054914;28;20124;-80
2022/10/05 07:04:38;;;;;;;6.88;5.75;;;15.20;99.90;;;;;;5051705;28;20173;-80
2022/10/05 07:07:22;;;;;;;9.00;5.40;;;15.20;99.90;;;;;;5049619;28;20048;-80
2022/10/05 07:09:56;;;;;;;6.53;4.95;;;15.20;99.90;;;;;;5055973;28;20049;-80
2022/10/05 07:12:36;;;;;;;6.60;4.82;;;15.20;99.90;;;;;;5056561;28;20051;-79
2022/10/05 07:15:20;;;;;;;6.72;4.72;;;15.30;99.90;;;;;;5053689;28;20059;-78
2022/10/05 07:17:48;;;;;;;7.20;5.20;;;15.20;99.90;;;;;;5052073;28;20149;-78
2022/10/05 07:20:31;;;;;;;7.60;5.50;;;15.20;99.90;;;;;;5053507;28;20047;-78
2022/10/05 07:23:22;;;;;;;9.00;4.77;;;15.30;99.90;;;;;;5054761;28;20048;-77
2022/10/05 07:26:08;;;;;;;5.45;4.70;;;15.30;99.90;;;;;;5043101;28;20303;-78
2022/10/05 07:28:40;;;;;;;5.88;4.28;;;15.30;99.90;;;;;;5056265;28;20044;-78
2022/10/05 07:31:21;;;;;;;7.35;4.90;;;15.40;99.90;;;;;;5045067;28;20181;-77
2022/10/05 07:34:25;;;;;;;6.50;4.82;;;15.40;99.90;;;;;;5049986;28;20056;-77
2022/10/05 07:40:02;;;;;;;5.72;4.50;;;15.40;99.90;;;;;;5047953;28;20036;-77
2022/10/05 07:42:52;;;;;;;6.32;4.18;;;15.40;99.90;;;;;;5051503;28;20149;-74
2022/10/05 07:45:36;;;;;;;5.25;3.40;;;15.40;99.90;;;;;;5050347;28;20056;-77
2022/10/05 07:48:22;;;;;;;5.00;4.50;;;15.40;99.90;;;;;;5055472;28;20061;-77
2022/10/05 07:51:14;;;;;;;5.05;4.10;;;15.50;99.90;;;;;;5050939;28;20816;-79
2022/10/05 07:53:54;;;;;;;4.68;3.47;;;15.40;99.90;;;;;;5058193;28;20553;-78
2022/10/05 07:56:28;;;;;;;4.57;3.50;;;15.40;99.90;;;;;;5055142;28;20044;-78
2022/10/05 07:59:13;;;;;;;5.90;3.35;;;15.50;99.90;;;;;;5060202;28;20044;-79
2022/10/05 08:01:47;;;;;;;4.50;3.38;;;15.50;99.90;;;;;;5057189;28;20040;-78
2022/10/05 08:04:21;;;;;;;5.43;3.28;;;15.50;99.90;;;;;;5059733;28;20044;-79
2022/10/05 08:06:58;;;;;;;5.00;3.00;;;15.60;99.90;;;;;;5053051;28;20044;-78
2022/10/05 08:09:44;;;;;;;4.18;3.05;;;15.70;99.90;;;;;;5060094;28;20123;-81
2022/10/05 08:12:25;;;;;;;4.43;2.83;;;15.70;99.90;;;;;;5061394;28;20481;-81
2022/10/05 08:15:12;;;;;;;4.40;3.08;;;15.80;99.90;;;;;;5053147;28;20926;-81
2022/10/05 08:18:18;;;;;;;4.25;2.90;;;15.90;99.90;;;;;;5060444;28;20073;-80
2022/10/05 08:20:55;;;;;;;3.10;2.75;;;15.90;99.90;;;;;;5059227;28;20041;-79
2022/10/05 08:23:27;;;;;;;5.15;3.35;;;16.00;99.90;;;;;;5045285;28;20072;-80
2022/10/05 08:25:52;;;;;;;5.07;3.40;;;16.00;99.90;;;;;;5060198;28;20839;-79
2022/10/05 08:28:36;;;;;;;5.72;3.78;;;16.10;99.90;;;;;;5050784;28;20048;-80
2022/10/05 08:31:15;;;;;;;5.30;4.05;;;16.10;99.90;;;;;;5046683;28;20076;-80
2022/10/05 08:33:54;;;;;;;5.90;4.40;;;16.10;99.90;;;;;;5049164;28;20056;-81
2022/10/05 08:36:40;;;;;;;5.07;4.13;;;16.10;99.90;;;;;;5061013;28;20468;-81
2022/10/05 08:39:16;;;;;;;4.40;4.00;;;16.20;99.90;;;;;;5042787;28;20063;-81
2022/10/05 08:41:51;;;;;;;4.57;3.85;;;16.30;99.90;;;;;;5041988;28;20850;-80
2022/10/05 08:44:51;;;;;;;5.63;4.10;;;16.50;99.90;;;;;;5054110;28;20428;-79
2022/10/05 08:47:54;;;;;;;5.38;3.95;;;16.70;99.90;;;;;;5052091;28;20880;-80
2022/10/05 08:50:38;;;;;;;5.80;3.47;;;16.90;99.90;;;;;;5042442;28;20148;-82
2022/10/05 08:53:25;;;;;;;4.68;4.18;;;17.00;99.90;;;;;;5045665;28;20129;-81
2022/10/05 08:56:12;;;;;;;4.43;3.88;;;17.30;99.90;;;;;;5048563;28;20064;-81
2022/10/05 08:58:46;;;;;;;5.18;3.80;;;17.50;99.90;;;;;;5043386;28;20688;-80
2022/10/05 09:01:20;;;;;;;5.00;3.05;;;17.50;99.90;;;;;;5057861;28;20401;-78
2022/10/05 09:04:07;;;;;;;7.57;3.83;;;17.70;99.90;;;;;;5062093;28;20608;-81
2022/10/05 09:07:08;;;;;;;4.75;3.67;;;18.00;99.90;;;;;;5058871;28;20040;-77
2022/10/05 09:10:12;;;;;;;3.92;3.53;;;18.40;99.90;;;;;;5055781;28;20182;-78
2022/10/05 09:12:43;;;;;;;5.10;3.88;;;18.40;99.90;;;;;;5045266;28;20148;-79
2022/10/05 09:15:18;;;;;;;6.18;4.10;;;18.60;99.90;;;;;;5060935;28;20060;-78
2022/10/05 09:18:06;;;;;;;5.05;4.00;;;18.50;99.90;;;;;;5054726;28;20059;-81
2022/10/05 09:21:01;;;;;;;9.02;4.35;;;18.40;99.90;;;;;;5054960;28;20048;-79
2022/10/05 09:23:43;;;;;;;4.72;3.60;;;18.30;99.90;;;;;;5061751;28;20147;-79
2022/10/05 09:26:11;;;;;;;5.35;4.18;;;18.10;99.90;;;;;;5057424;28;20708;-79
2022/10/05 09:28:56;;;;;;;5.90;4.65;;;18.10;99.90;;;;;;5058661;28;20049;-80
2022/10/05 09:31:39;;;;;;;7.20;4.22;;;18.00;99.90;;;;;;5056347;28;20170;-81
2022/10/05 09:34:29;;;;;;;4.78;3.25;;;17.90;99.90;;;;;;5059422;28;20056;-81
2022/10/05 09:37:34;;;;;;;4.25;3.60;;;17.90;99.90;;;;;;5059083;28;20056;-81
2022/10/05 09:40:03;;;;;;;5.13;3.30;;;17.80;99.90;;;;;;5050034;28;20190;-80
2022/10/05 09:42:42;;;;;;;4.75;4.13;;;17.80;99.90;;;;;;5056004;28;20760;-80
2022/10/05 09:45:43;;;;;;;6.63;4.13;;;17.90;99.90;;;;;;5060031;28;20045;-80
2022/10/05 09:48:26;;;;;;;3.63;3.33;;;17.90;99.90;;;;;;5045337;28;20436;-80
2022/10/05 09:51:07;;;;;;;4.45;3.20;;;18.00;99.90;;;;;;5058335;28;20051;-82
2022/10/05 09:53:54;;;;;;;5.10;3.65;;;17.90;99.90;;;;;;5053725;28;20082;-79
2022/10/05 09:56:50;;;;;;;4.22;3.08;;;17.90;99.90;;;;;;5076610;28;20045;-81
2022/10/05 09:59:26;;;;;;;3.20;2.90;;;17.80;99.90;;;;;;5058739;28;20134;-78
2022/10/05 10:01:52;;;;;;;3.25;2.58;;;17.80;99.90;;;;;;5060767;28;20051;-78
2022/10/05 10:04:29;;;;;;;3.50;3.20;;;17.80;99.90;;;;;;5051313;28;20052;-77
2022/10/05 10:07:09;;;;;;;3.75;2.92;;;17.80;99.90;;;;;;5051624;28;20053;-80
2022/10/05 10:09:56;;;;;;;4.53;2.38;;;17.70;99.90;;;;;;5054673;28;20053;-79
2022/10/05 10:12:34;;;;;;;3.38;2.70;;;17.70;99.90;;;;;;5050586;28;20151;-77
2022/10/05 10:15:17;;;;;;;5.55;2.40;;;17.80;99.90;;;;;;5054201;28;20057;-79
2022/10/05 10:18:02;;;;;;;;;;;17.70;99.90;;;;;;5050521;28;20067;-78
2022/10/05 10:21:08;;;;;;;2.70;2.50;;;17.70;99.90;;;;;;5058312;28;19931;-78
2022/10/05 10:23:37;;;;;;;4.97;2.50;;;17.60;99.90;;;;;;5057674;28;20512;-80
2022/10/05 10:26:13;;;;;;;2.20;2.00;;;17.70;99.90;;;;;;5057758;28;20052;-78
2022/10/05 10:29:07;;;;;;;2.72;2.53;;;17.70;99.90;;;;;;5087368;27;20986;-81
2022/10/05 10:31:58;;;;;;;3.45;3.15;;;17.60;99.90;;;;;;5057938;28;20080;-77
2022/10/05 10:34:52;;;;;;;3.97;3.10;;;17.60;99.90;;;;;;5058814;28;20048;-81
2022/10/05 10:37:23;;;;;;;2.90;2.63;;;17.70;99.90;;;;;;5071730;28;20171;-78
2022/10/05 10:40:04;;;;;;;4.07;3.38;;;17.60;99.90;;;;;;5058170;28;20052;-81
2022/10/05 10:42:58;;;;;;;4.57;3.15;;;17.60;99.90;;;;;;5058818;28;20120;-77
2022/10/05 10:45:32;;;;;;;;;;;17.60;99.90;;;;;;5047762;28;20083;-79
2022/10/05 10:48:01;;;;;;;3.47;2.75;;;17.60;99.90;;;;;;5056740;28;20378;-79
2022/10/05 10:50:35;;;;;;;3.85;3.50;;;17.60;99.90;;;;;;5050965;28;20494;-78
2022/10/05 10:53:33;;;;;;;3.33;3.03;;;17.60;99.90;;;;;;5054728;28;20585;-80
2022/10/05 10:56:58;;;;;;;5.47;4.13;;;17.70;99.90;;;;;;5043018;28;20206;-80
2022/10/05 10:59:48;;;;;;;3.63;3.22;;;17.70;99.90;;;;;;4920398;28;20055;-79
2022/10/05 11:02:50;;;;;;;4.35;3.95;;;17.80;99.90;;;;;;4975596;28;20089;-78
2022/10/05 11:05:37;;;;;;;4.93;3.95;;;17.60;99.90;;;;;;5043031;28;20049;-77
2022/10/05 11:08:45;;;;;;;3.50;3.20;;;17.60;99.90;;;;;;5045300;28;20045;-80
2022/10/05 11:11:31;;;;;;;3.92;3.55;;;17.70;99.90;;;;;;5046425;28;20069;-80
2022/10/05 11:14:32;;;;;;;3.72;3.25;;;17.70;99.90;;;;;;5049596;28;20055;-82
2022/10/05 11:17:03;;;;;;;6.38;3.53;;;17.80;99.90;;;;;;5047064;28;20064;-80
2022/10/05 11:20:02;;;;;;;4.55;3.60;;;17.70;99.90;;;;;;5052515;28;20137;-81
2022/10/05 11:22:43;;;;;;;4.35;3.38;;;17.60;99.90;;;;;;5048444;28;20051;-81
2022/10/05 11:25:33;;;;;;;5.13;3.15;;;17.70;99.90;;;;;;5058741;28;20044;-81
2022/10/05 11:27:59;;;;;;;3.78;3.00;;;17.70;99.90;;;;;;5045030;28;20048;-82
2022/10/05 11:30:51;;;;;;;5.97;3.33;;;17.70;99.90;;;;;;5057472;28;20043;-81
2022/10/05 11:33:41;;;;;;;3.78;3.45;;;17.70;99.90;;;;;;5052751;28;20079;-82
2022/10/05 11:36:22;;;;;;;3.90;3.17;;;17.80;99.90;;;;;;5048158;28;20044;-81
2022/10/05 11:39:17;;;;;;;4.43;3.00;;;17.80;99.90;;;;;;5054652;28;20127;-80
2022/10/05 11:42:25;;;;;;;5.25;3.65;;;17.80;99.90;;;;;;5053012;28;20041;-80
2022/10/05 11:45:24;;;;;;;5.30;3.53;;;17.80;99.90;;;;;;5034010;28;20094;-80
2022/10/05 11:48:27;;;;;;;3.78;3.40;;;17.80;99.90;;;;;;5054260;28;20095;-81
2022/10/05 11:51:20;;;;;;;4.43;3.70;;;17.70;99.90;;;;;;5047849;28;20045;-79
2022/10/05 11:54:07;;;;;;;4.32;3.47;;;17.70;99.90;;;;;;5047357;28;20045;-79
2022/10/05 11:56:39;;;;;;;4.03;3.63;;;17.70;99.90;;;;;;5052719;28;20339;-80
2022/10/05 11:59:14;;;;;;;5.45;4.40;;;17.60;99.90;;;;;;5049502;28;20190;-81
2022/10/05 12:02:03;;;;;;;5.85;4.15;;;17.60;99.90;;;;;;5046190;28;20079;-81
2022/10/05 12:05:10;;;;;;;5.13;4.60;;;17.80;99.90;;;;;;5049546;28;20055;-80
2022/10/05 12:07:41;;;;;;;4.38;3.97;;;17.70;99.90;;;;;;5037642;28;20131;-82
2022/10/05 12:10:24;;;;;;;4.63;4.18;;;17.70;99.90;;;;;;5054451;28;20130;-80
2022/10/05 12:13:06;;;;;;;5.18;4.15;;;17.70;99.90;;;;;;5059263;28;20048;-81
2022/10/05 12:16:02;;;;;;;7.47;3.83;;;17.70;99.90;;;;;;5077865;28;20057;-78
2022/10/05 12:18:31;;;;;;;7.55;3.70;;;17.70;99.90;;;;;;5044253;28;20055;-78
2022/10/05 12:21:15;;;;;;;4.55;3.58;;;17.70;99.90;;;;;;5083139;28;20052;-78
2022/10/05 12:24:08;;;;;;;3.75;3.45;;;17.70;99.90;;;;;;5065993;28;20048;-80
2022/10/05 12:26:44;;;;;;;4.93;4.43;;;17.70;99.90;;;;;;5057331;28;20044;-79
2022/10/05 12:29:45;;;;;;;5.28;3.58;;;17.70;99.90;;;;;;5049468;28;20129;-81
2022/10/05 12:32:21;;;;;;;3.80;3.50;;;17.70;99.90;;;;;;5046255;28;20901;-80
2022/10/05 12:35:06;;;;;;;3.30;2.70;;;17.60;99.90;;;;;;5046649;28;20140;-80
2022/10/05 12:37:52;;;;;;;3.28;2.65;;;17.60;99.90;;;;;;5052695;28;20049;-81
2022/10/05 12:40:22;;;;;;;3.17;2.88;;;17.60;99.90;;;;;;5051990;28;20048;-80
2022/10/05 12:43:10;;;;;;;4.30;2.78;;;17.60;99.90;;;;;;5052306;28;20060;-79
2022/10/05 12:45:44;;;;;;;6.03;3.40;;;17.60;99.90;;;;;;5053112;28;20053;-81
2022/10/05 12:48:51;;;;;;;4.32;2.78;;;17.60;99.90;;;;;;5060305;28;20138;-80
2022/10/05 12:51:35;;;;;;;3.17;2.90;;;17.60;99.90;;;;;;5060252;28;20048;-80
2022/10/05 12:54:07;;;;;;;4.65;2.53;;;17.60;99.90;;;;;;5054232;28;20049;-81
2022/10/05 12:56:52;;;;;;;3.83;2.78;;;17.70;99.90;;;;;;5058788;28;20129;-79
2022/10/05 12:59:21;;;;;;;3.40;3.00;;;17.70;99.90;;;;;;5058655;28;20156;-81
2022/10/05 13:01:59;;;;;;;3.65;2.47;;;17.70;99.90;;;;;;5054579;28;20144;-80
2022/10/05 13:04:56;;;;;;;3.35;2.53;;;17.70;99.90;;;;;;5059015;28;20178;-80
2022/10/05 13:07:52;;;;;;;5.25;2.65;;;17.70;99.90;;;;;;5043100;28;20049;-81
2022/10/05 13:10:26;;;;;;;2.78;2.55;;;17.70;99.90;;;;;;5048999;28;20049;-78
2022/10/05 13:13:33;;;;;;;3.38;2.97;;;17.70;99.90;;;;;;5059905;28;20337;-80
2022/10/05 13:16:09;;;;;;;5.75;2.80;;;17.60;99.90;;;;;;5059511;28;20048;-80
2022/10/05 13:18:48;;;;;;;5.30;3.28;;;17.60;99.90;;;;;;5046359;28;20045;-79
2022/10/05 13:21:48;;;;;;;3.40;3.05;;;17.60;99.90;;;;;;5047096;28;20059;-81
2022/10/05 13:24:26;;;;;;;3.88;3.58;;;17.60;99.90;;;;;;5050931;28;20421;-80
2022/10/05 13:27:12;;;;;;;3.92;3.53;;;17.60;99.90;;;;;;5060939;28;20045;-80
2022/10/05 13:30:01;;;;;;;3.60;3.30;;;17.80;99.90;;;;;;5057159;28;20048;-80
2022/10/05 13:32:36;;;;;;;7.38;3.22;;;17.90;99.90;;;;;;5059011;28;20083;-79
2022/10/05 13:35:28;;;;;;;5.65;3.83;;;17.90;99.90;;;;;;5055603;28;20177;-80
2022/10/05 13:38:12;;;;;;;4.13;3.80;;;18.00;99.90;;;;;;5052511;28;20072;-77
2022/10/05 13:40:48;;;;;;;5.28;4.22;;;18.00;99.90;;;;;;5054470;28;20052;-78
2022/10/05 13:43:29;;;;;;;4.93;4.10;;;18.00;99.90;;;;;;5057990;28;20084;-80
2022/10/05 13:46:09;;;;;;;5.53;4.07;;;18.00;99.90;;;;;;5054628;28;20092;-80
2022/10/05 13:49:12;;;;;;;4.50;4.10;;;18.10;99.90;;;;;;5046710;28;20071;-79
2022/10/05 13:51:52;;;;;;;6.40;4.13;;;18.10;99.90;;;;;;5056872;28;20044;-80
2022/10/05 13:54:27;;;;;;;4.18;3.78;;;18.10;99.90;;;;;;5056865;28;20055;-79
2022/10/05 13:57:30;;;;;;;5.40;4.07;;;18.10;99.90;;;;;;5056606;28;20147;-79
2022/10/05 14:00:19;;;;;;;5.93;3.97;;;18.10;99.90;;;;;;5051693;28;20052;-78
2022/10/05 14:02:48;;;;;;;7.30;4.35;;;18.10;99.90;;;;;;5042317;28;20045;-80
2022/10/05 14:05:19;;;;;;;5.63;4.45;;;18.20;99.90;;;;;;5053978;28;20402;-80
2022/10/05 14:08:08;;;;;;;4.45;3.97;;;18.20;99.90;;;;;;5041458;28;20037;-80
2022/10/05 14:10:43;;;;;;;4.70;3.85;;;18.10;99.90;;;;;;5061381;28;20048;-79